createdAt,value
2019-06-20T00:00:16.139Z,0
2019-06-20T00:01:16.106Z,0
2019-06-20T00:02:16.176Z,0
2019-06-20T00:03:16.238Z,0
2019-06-20T00:04:16.156Z,0
2019-06-20T00:05:16.157Z,0
2019-06-20T00:06:16.228Z,0
2019-06-20T00:07:16.231Z,0
2019-06-20T00:08:16.159Z,0
2019-06-20T00:09:16.159Z,0
2019-06-20T00:10:16.238Z,0
2019-06-20T00:11:16.163Z,0
2019-06-20T00:12:16.181Z,0
2019-06-20T00:13:16.156Z,0
2019-06-20T00:14:16.227Z,0
2019-06-20T00:15:16.230Z,0
2019-06-20T00:16:16.159Z,0
2019-06-20T00:17:16.155Z,0
2019-06-20T00:18:16.230Z,0
2019-06-20T00:19:16.164Z,0
2019-06-20T00:20:16.186Z,0
2019-06-20T00:21:16.180Z,0
2019-06-20T00:22:16.231Z,0
2019-06-20T00:23:16.168Z,0
2019-06-20T00:24:16.175Z,0
2019-06-20T00:25:16.233Z,0
2019-06-20T00:26:16.306Z,0
2019-06-20T00:27:16.238Z,0
2019-06-20T00:28:16.190Z,0
2019-06-20T00:29:16.236Z,0
2019-06-20T00:30:16.171Z,0
2019-06-20T00:31:16.242Z,0
2019-06-20T00:32:16.178Z,0
2019-06-20T00:33:16.254Z,0
2019-06-20T00:34:16.180Z,0
2019-06-20T00:35:16.180Z,0
2019-06-20T00:36:16.193Z,0
2019-06-20T00:37:16.188Z,0
2019-06-20T00:38:16.215Z,0
2019-06-20T00:39:16.192Z,0
2019-06-20T00:40:16.320Z,0
2019-06-20T00:41:16.192Z,0
2019-06-20T00:42:16.264Z,0
2019-06-20T00:43:18.222Z,0
2019-06-20T00:44:16.185Z,0
2019-06-20T00:45:16.279Z,0
2019-06-20T00:46:16.256Z,0
2019-06-20T00:47:16.263Z,0
2019-06-20T00:48:16.287Z,0
2019-06-20T00:49:16.199Z,0
2019-06-20T00:50:16.266Z,0
2019-06-20T00:51:16.206Z,0
2019-06-20T00:52:16.260Z,0
2019-06-20T00:53:16.272Z,0
2019-06-20T00:54:16.379Z,0
2019-06-20T00:55:16.274Z,0
2019-06-20T00:56:16.319Z,0
2019-06-20T00:57:16.310Z,0
2019-06-20T00:58:16.206Z,0
2019-06-20T00:59:16.234Z,0
2019-06-20T01:00:16.202Z,0
2019-06-20T01:01:16.209Z,0
2019-06-20T01:02:16.274Z,0
2019-06-20T01:03:16.285Z,0
2019-06-20T01:04:16.208Z,0
2019-06-20T01:05:16.345Z,0
2019-06-20T01:06:16.208Z,0
2019-06-20T01:07:16.271Z,0
2019-06-20T01:08:16.275Z,0
2019-06-20T01:09:16.219Z,0
2019-06-20T01:10:16.211Z,0
2019-06-20T01:11:16.301Z,0
2019-06-20T01:12:16.282Z,0
2019-06-20T01:13:32.263Z,0
2019-06-20T01:14:16.394Z,0
2019-06-20T01:15:16.211Z,0
2019-06-20T01:16:16.218Z,0
2019-06-20T01:17:16.277Z,0
2019-06-20T01:18:16.279Z,0
2019-06-20T01:19:16.232Z,0
2019-06-20T01:20:16.214Z,0
2019-06-20T01:21:16.222Z,0
2019-06-20T01:22:16.288Z,0
2019-06-20T01:23:16.294Z,0
2019-06-20T01:24:16.354Z,0
2019-06-20T01:25:16.221Z,0
2019-06-20T01:26:16.290Z,0
2019-06-20T01:27:16.294Z,0
2019-06-20T01:28:16.315Z,0
2019-06-20T01:29:16.227Z,0
2019-06-20T01:30:16.221Z,0
2019-06-20T01:31:16.303Z,0
2019-06-20T01:32:16.302Z,0
2019-06-20T01:33:16.297Z,0
2019-06-20T01:34:16.210Z,0
2019-06-20T01:35:16.289Z,0
2019-06-20T01:36:16.238Z,0
2019-06-20T01:37:16.290Z,0
2019-06-20T01:38:16.220Z,0
2019-06-20T01:39:16.281Z,0
2019-06-20T01:40:16.289Z,0
2019-06-20T01:41:16.319Z,0
2019-06-20T01:42:16.224Z,0
2019-06-20T01:43:16.216Z,0
2019-06-20T01:44:16.288Z,0
2019-06-20T01:45:16.194Z,0
2019-06-20T01:46:16.228Z,0
2019-06-20T01:47:16.262Z,0
2019-06-20T01:48:16.218Z,0
2019-06-20T01:49:16.290Z,0
2019-06-20T01:50:16.251Z,0
2019-06-20T01:51:16.203Z,0
2019-06-20T01:52:16.301Z,0
2019-06-20T01:53:16.227Z,0
2019-06-20T01:54:16.210Z,0
2019-06-20T01:55:16.258Z,0
2019-06-20T01:56:16.316Z,0
2019-06-20T01:57:16.236Z,0
2019-06-20T01:58:16.317Z,0
2019-06-20T01:59:16.234Z,0
2019-06-20T02:00:16.324Z,0
2019-06-20T02:01:16.238Z,0
2019-06-20T02:02:16.315Z,0
2019-06-20T02:03:16.236Z,0
2019-06-20T02:04:16.322Z,0
2019-06-20T02:05:16.249Z,0
2019-06-20T02:06:16.248Z,0
2019-06-20T02:07:16.322Z,0
2019-06-20T02:08:16.258Z,0
2019-06-20T02:09:16.253Z,0
2019-06-20T02:10:16.255Z,0
2019-06-20T02:11:16.271Z,0
2019-06-20T02:12:16.331Z,4
2019-06-20T02:13:16.327Z,4
2019-06-20T02:14:16.314Z,4
2019-06-20T02:15:16.286Z,4
2019-06-20T02:16:16.221Z,4
2019-06-20T02:17:16.268Z,4
2019-06-20T02:18:16.318Z,4
2019-06-20T02:19:16.195Z,4
2019-06-20T02:20:16.262Z,4
2019-06-20T02:21:16.253Z,8
2019-06-20T02:22:16.301Z,8
2019-06-20T02:23:16.253Z,8
2019-06-20T02:24:16.344Z,8
2019-06-20T02:25:16.265Z,8
2019-06-20T02:26:16.339Z,12
2019-06-20T02:27:16.282Z,12
2019-06-20T02:28:16.331Z,12
2019-06-20T02:29:16.287Z,16
2019-06-20T02:30:16.305Z,16
2019-06-20T02:31:16.296Z,20
2019-06-20T02:32:16.271Z,20
2019-06-20T02:33:16.295Z,24
2019-06-20T02:34:16.262Z,28
2019-06-20T02:35:16.344Z,32
2019-06-20T02:36:16.341Z,36
2019-06-20T02:37:16.278Z,40
2019-06-20T02:38:16.336Z,48
2019-06-20T02:39:16.352Z,56
2019-06-20T02:40:16.339Z,60
2019-06-20T02:41:16.347Z,72
2019-06-20T02:42:16.344Z,80
2019-06-20T02:43:16.345Z,92
2019-06-20T02:44:29.240Z,100
2019-06-20T02:45:16.346Z,112
2019-06-20T02:46:16.234Z,120
2019-06-20T02:47:16.355Z,136
2019-06-20T02:48:16.330Z,152
2019-06-20T02:49:16.330Z,164
2019-06-20T02:50:16.349Z,176
2019-06-20T02:51:16.246Z,188
2019-06-20T02:52:16.350Z,204
2019-06-20T02:53:16.310Z,212
2019-06-20T02:54:16.290Z,228
2019-06-20T02:55:16.382Z,240
2019-06-20T02:56:16.363Z,252
2019-06-20T02:57:16.364Z,264
2019-06-20T02:58:16.382Z,272
2019-06-20T02:59:16.293Z,284
2019-06-20T03:00:16.389Z,300
2019-06-20T03:01:16.299Z,312
2019-06-20T03:02:16.305Z,328
2019-06-20T03:03:16.295Z,344
2019-06-20T03:04:16.285Z,360
2019-06-20T03:05:16.296Z,380
2019-06-20T03:06:16.355Z,400
2019-06-20T03:07:16.355Z,428
2019-06-20T03:08:16.285Z,456
2019-06-20T03:09:16.358Z,488
2019-06-20T03:10:16.291Z,516
2019-06-20T03:11:16.368Z,556
2019-06-20T03:12:16.292Z,592
2019-06-20T03:13:16.367Z,636
2019-06-20T03:14:16.297Z,676
2019-06-20T03:15:16.370Z,724
2019-06-20T03:16:16.298Z,764
2019-06-20T03:17:16.301Z,812
2019-06-20T03:18:16.364Z,860
2019-06-20T03:19:16.427Z,904
2019-06-20T03:20:16.298Z,956
2019-06-20T03:21:16.388Z,1008
2019-06-20T03:22:16.371Z,1068
2019-06-20T03:23:16.300Z,1124
2019-06-20T03:24:16.370Z,1180
2019-06-20T03:25:16.376Z,1244
2019-06-20T03:26:16.298Z,1312
2019-06-20T03:27:16.371Z,1380
2019-06-20T03:28:16.303Z,1456
2019-06-20T03:29:16.373Z,1540
2019-06-20T03:30:16.307Z,1644
2019-06-20T03:31:16.399Z,1760
2019-06-20T03:32:16.302Z,1892
2019-06-20T03:33:16.310Z,2028
2019-06-20T03:34:16.250Z,2168
2019-06-20T03:35:16.249Z,2312
2019-06-20T03:36:16.317Z,2440
2019-06-20T03:37:16.266Z,2580
2019-06-20T03:38:16.249Z,2712
2019-06-20T03:39:16.331Z,2844
2019-06-20T03:40:16.317Z,2948
2019-06-20T03:41:16.327Z,3040
2019-06-20T03:42:16.309Z,3120
2019-06-20T03:43:16.296Z,3208
2019-06-20T03:44:16.309Z,3324
2019-06-20T03:45:16.349Z,3436
2019-06-20T03:46:16.285Z,3556
2019-06-20T03:47:16.325Z,3736
2019-06-20T03:48:16.294Z,3964
2019-06-20T03:49:16.320Z,4180
2019-06-20T03:50:16.273Z,4336
2019-06-20T03:51:16.328Z,4504
2019-06-20T03:52:16.417Z,4788
2019-06-20T03:53:16.288Z,5032
2019-06-20T03:54:16.298Z,5188
2019-06-20T03:55:16.330Z,5320
2019-06-20T03:56:16.383Z,5388
2019-06-20T03:57:16.358Z,5360
2019-06-20T03:58:16.392Z,5396
2019-06-20T03:59:16.292Z,5408
2019-06-20T04:00:16.394Z,5316
2019-06-20T04:01:16.333Z,5336
2019-06-20T04:02:16.344Z,5560
2019-06-20T04:03:16.385Z,5640
2019-06-20T04:04:16.371Z,5584
2019-06-20T04:05:16.339Z,5664
2019-06-20T04:06:16.345Z,5908
2019-06-20T04:07:16.345Z,6088
2019-06-20T04:08:16.416Z,6224
2019-06-20T04:09:16.412Z,6372
2019-06-20T04:10:16.414Z,6484
2019-06-20T04:11:16.349Z,6660
2019-06-20T04:12:16.347Z,6968
2019-06-20T04:13:16.399Z,7144
2019-06-20T04:14:16.380Z,7280
2019-06-20T04:15:19.373Z,7488
2019-06-20T04:16:16.303Z,7728
2019-06-20T04:17:16.284Z,7864
2019-06-20T04:18:16.412Z,7944
2019-06-20T04:19:16.311Z,8032
2019-06-20T04:20:16.287Z,8220
2019-06-20T04:21:16.310Z,8472
2019-06-20T04:22:16.409Z,8708
2019-06-20T04:23:16.384Z,8896
2019-06-20T04:24:16.422Z,9088
2019-06-20T04:25:16.442Z,9304
2019-06-20T04:26:16.358Z,9560
2019-06-20T04:27:16.432Z,9936
2019-06-20T04:28:16.427Z,10320
2019-06-20T04:29:16.428Z,10768
2019-06-20T04:30:16.354Z,11272
2019-06-20T04:31:16.369Z,11552
2019-06-20T04:32:16.434Z,12092
2019-06-20T04:33:16.361Z,12620
2019-06-20T04:34:16.282Z,13216
2019-06-20T04:35:16.370Z,13940
2019-06-20T04:36:16.356Z,14984
2019-06-20T04:37:16.290Z,16364
2019-06-20T04:38:16.421Z,17504
2019-06-20T04:39:19.491Z,17776
2019-06-20T04:40:16.353Z,17204
2019-06-20T04:41:16.322Z,16564
2019-06-20T04:42:18.601Z,16304
2019-06-20T04:43:16.356Z,16456
2019-06-20T04:44:16.340Z,16560
2019-06-20T04:45:16.373Z,16408
2019-06-20T04:46:16.430Z,16192
2019-06-20T04:47:16.364Z,16052
2019-06-20T04:48:16.356Z,16032
2019-06-20T04:49:19.631Z,15984
2019-06-20T04:50:16.362Z,15632
2019-06-20T04:51:16.441Z,15260
2019-06-20T04:52:16.429Z,15300
2019-06-20T04:53:16.358Z,15916
2019-06-20T04:54:16.452Z,16988
2019-06-20T04:55:16.456Z,18260
2019-06-20T04:56:16.452Z,19752
2019-06-20T04:57:16.384Z,21440
2019-06-20T04:58:16.447Z,22848
2019-06-20T04:59:16.453Z,24352
2019-06-20T05:00:16.375Z,25312
2019-06-20T05:01:16.451Z,25760
2019-06-20T05:02:16.451Z,25568
2019-06-20T05:03:16.383Z,25280
2019-06-20T05:04:16.390Z,24896
2019-06-20T05:05:16.354Z,24192
2019-06-20T05:06:16.388Z,23296
2019-06-20T05:07:16.391Z,22560
2019-06-20T05:08:16.392Z,21528
2019-06-20T05:09:16.406Z,21000
2019-06-20T05:10:16.463Z,20672
2019-06-20T05:11:16.470Z,20532
2019-06-20T05:12:16.467Z,20596
2019-06-20T05:13:16.399Z,20844
2019-06-20T05:14:16.518Z,21200
2019-06-20T05:15:16.322Z,21544
2019-06-20T05:16:16.432Z,21244
2019-06-20T05:17:16.410Z,20416
2019-06-20T05:18:16.390Z,20112
2019-06-20T05:19:16.554Z,20548
2019-06-20T05:20:16.398Z,20588
2019-06-20T05:21:16.330Z,20088
2019-06-20T05:22:16.425Z,19408
2019-06-20T05:23:16.327Z,19320
2019-06-20T05:24:16.491Z,19388
2019-06-20T05:25:16.478Z,19920
2019-06-20T05:26:16.406Z,21240
2019-06-20T05:27:16.471Z,22272
2019-06-20T05:28:16.472Z,22336
2019-06-20T05:29:16.452Z,22624
2019-06-20T05:30:16.403Z,21968
2019-06-20T05:31:16.409Z,20928
2019-06-20T05:32:16.527Z,20072
2019-06-20T05:33:16.475Z,19488
2019-06-20T05:34:16.462Z,19312
2019-06-20T05:35:16.459Z,19400
2019-06-20T05:36:16.412Z,19464
2019-06-20T05:37:16.507Z,19400
2019-06-20T05:38:16.408Z,19360
2019-06-20T05:39:16.486Z,19168
2019-06-20T05:40:16.471Z,18996
2019-06-20T05:41:16.394Z,19148
2019-06-20T05:42:16.409Z,19868
2019-06-20T05:43:16.354Z,21532
2019-06-20T05:44:16.491Z,30080
2019-06-20T05:45:16.433Z,40096
2019-06-20T05:46:16.424Z,39392
2019-06-20T05:47:16.495Z,43968
2019-06-20T05:48:16.419Z,44928
2019-06-20T05:49:16.492Z,34080
2019-06-20T05:50:16.425Z,35744
2019-06-20T05:51:16.435Z,43648
2019-06-20T05:52:17.368Z,49952
2019-06-20T05:53:16.503Z,61216
2019-06-20T05:54:16.427Z,55200
2019-06-20T05:55:16.503Z,54496
2019-06-20T05:56:16.423Z,50592
2019-06-20T05:57:16.437Z,54080
2019-06-20T05:58:16.423Z,58560
2019-06-20T05:59:16.523Z,52320
2019-06-20T06:00:16.430Z,64960
2019-06-20T06:01:16.442Z,61952
2019-06-20T06:02:16.453Z,57472
2019-06-20T06:03:16.509Z,60224
2019-06-20T06:04:16.366Z,66048
2019-06-20T06:05:16.496Z,62880
2019-06-20T06:06:16.430Z,62880
2019-06-20T06:07:16.428Z,63968
2019-06-20T06:08:16.543Z,65408
2019-06-20T06:09:16.463Z,64288
2019-06-20T06:10:16.499Z,59392
2019-06-20T06:11:16.714Z,39680
2019-06-20T06:12:16.464Z,39232
2019-06-20T06:13:16.490Z,27424
2019-06-20T06:14:16.410Z,33184
2019-06-20T06:15:16.427Z,47520
2019-06-20T06:16:25.691Z,49184
2019-06-20T06:17:16.430Z,81312
2019-06-20T06:18:16.469Z,81216
2019-06-20T06:19:16.505Z,49024
2019-06-20T06:20:16.503Z,54880
2019-06-20T06:21:16.505Z,36800
2019-06-20T06:22:16.415Z,33664
2019-06-20T06:23:16.497Z,28960
2019-06-20T06:24:16.385Z,28096
2019-06-20T06:25:16.456Z,28032
2019-06-20T06:26:16.500Z,49760
2019-06-20T06:27:16.444Z,29600
2019-06-20T06:28:16.534Z,48640
2019-06-20T06:29:16.437Z,75968
2019-06-20T06:30:16.454Z,64000
2019-06-20T06:31:16.452Z,78112
2019-06-20T06:32:20.018Z,32480
2019-06-20T06:33:16.396Z,26112
2019-06-20T06:34:16.534Z,26752
2019-06-20T06:35:16.521Z,76288
2019-06-20T06:36:16.533Z,81152
2019-06-20T06:37:16.530Z,79712
2019-06-20T06:38:22.045Z,80032
2019-06-20T06:39:16.528Z,81184
2019-06-20T06:40:16.543Z,80928
2019-06-20T06:41:16.498Z,83232
2019-06-20T06:42:16.534Z,83488
2019-06-20T06:43:16.466Z,85408
2019-06-20T06:44:16.492Z,85792
2019-06-20T06:45:16.398Z,90816
2019-06-20T06:46:16.524Z,95456
2019-06-20T06:47:16.451Z,68640
2019-06-20T06:48:16.522Z,42336
2019-06-20T06:49:16.482Z,76768
2019-06-20T06:50:16.543Z,49920
2019-06-20T06:51:16.513Z,55936
2019-06-20T06:52:16.471Z,70720
2019-06-20T06:53:16.427Z,42208
2019-06-20T06:54:16.515Z,37760
2019-06-20T06:55:16.443Z,36480
2019-06-20T06:56:16.470Z,33376
2019-06-20T06:57:16.532Z,29728
2019-06-20T06:58:16.535Z,32608
2019-06-20T06:59:16.531Z,36256
2019-06-20T07:00:16.474Z,33568
2019-06-20T07:01:16.612Z,31456
2019-06-20T07:02:16.476Z,37824
2019-06-20T07:03:16.534Z,51808
2019-06-20T07:04:16.464Z,49216
2019-06-20T07:05:16.449Z,63200
2019-06-20T07:06:16.417Z,92128
2019-06-20T07:07:16.466Z,107040
2019-06-20T07:08:16.507Z,111872
2019-06-20T07:09:16.473Z,61088
2019-06-20T07:10:16.450Z,71872
2019-06-20T07:11:16.469Z,53760
2019-06-20T07:12:16.481Z,44128
2019-06-20T07:13:16.471Z,32992
2019-06-20T07:14:16.620Z,55968
2019-06-20T07:15:16.477Z,96064
2019-06-20T07:16:16.572Z,84288
2019-06-20T07:17:16.553Z,89248
2019-06-20T07:18:16.472Z,61824
2019-06-20T07:19:16.481Z,102592
2019-06-20T07:20:16.492Z,107712
2019-06-20T07:21:16.481Z,120064
2019-06-20T07:22:16.500Z,113472
2019-06-20T07:23:16.734Z,49600
2019-06-20T07:24:16.548Z,42752
2019-06-20T07:25:16.504Z,106624
2019-06-20T07:26:16.563Z,125472
2019-06-20T07:27:16.500Z,122976
2019-06-20T07:28:16.493Z,126656
2019-06-20T07:29:16.567Z,71456
2019-06-20T07:30:16.557Z,108000
2019-06-20T07:31:16.569Z,121344
2019-06-20T07:32:16.570Z,112832
2019-06-20T07:33:16.512Z,114784
2019-06-20T07:34:16.515Z,110976
2019-06-20T07:35:16.569Z,77312
2019-06-20T07:36:16.569Z,101504
2019-06-20T07:37:16.571Z,114208
2019-06-20T07:38:16.505Z,55424
2019-06-20T07:39:16.577Z,120608
2019-06-20T07:40:16.571Z,122400
2019-06-20T07:41:16.572Z,119872
2019-06-20T07:42:16.551Z,123936
2019-06-20T07:43:16.604Z,130592
2019-06-20T07:44:16.577Z,133216
2019-06-20T07:45:16.511Z,135008
2019-06-20T07:46:16.566Z,132576
2019-06-20T07:47:17.834Z,128640
2019-06-20T07:48:16.498Z,129984
2019-06-20T07:49:16.588Z,74080
2019-06-20T07:50:16.603Z,145824
2019-06-20T07:51:16.589Z,85984
2019-06-20T07:52:16.497Z,108064
2019-06-20T07:53:16.506Z,65984
2019-06-20T07:54:16.576Z,61312
2019-06-20T07:55:16.515Z,57952
2019-06-20T07:56:16.618Z,52992
2019-06-20T07:57:16.584Z,46176
2019-06-20T07:58:16.545Z,38976
2019-06-20T07:59:16.591Z,33248
2019-06-20T08:00:16.608Z,28992
2019-06-20T08:01:16.540Z,23296
2019-06-20T08:02:16.530Z,22752
2019-06-20T08:03:16.572Z,24672
2019-06-20T08:04:16.531Z,28032
2019-06-20T08:05:16.573Z,34208
2019-06-20T08:06:16.582Z,40768
2019-06-20T08:07:16.466Z,82624
2019-06-20T08:08:16.576Z,60256
2019-06-20T08:09:16.480Z,140256
2019-06-20T08:10:16.579Z,150208
2019-06-20T08:11:16.543Z,79040
2019-06-20T08:12:16.520Z,78208
2019-06-20T08:13:16.472Z,63712
2019-06-20T08:14:16.586Z,69696
2019-06-20T08:15:16.525Z,78464
2019-06-20T08:16:16.516Z,63552
2019-06-20T08:17:16.520Z,55584
2019-06-20T08:18:16.500Z,53056
2019-06-20T08:19:16.537Z,48256
2019-06-20T08:20:16.594Z,41088
2019-06-20T08:21:16.609Z,38048
2019-06-20T08:22:16.507Z,36896
2019-06-20T08:23:16.602Z,35840
2019-06-20T08:24:16.563Z,39520
2019-06-20T08:25:16.600Z,50208
2019-06-20T08:26:16.609Z,61984
2019-06-20T08:27:16.543Z,64192
2019-06-20T08:28:16.608Z,58848
2019-06-20T08:29:21.213Z,53984
2019-06-20T08:30:16.685Z,57824
2019-06-20T08:31:16.617Z,119488
2019-06-20T08:32:16.624Z,72736
2019-06-20T08:33:16.559Z,68800
2019-06-20T08:34:16.615Z,102560
2019-06-20T08:35:16.633Z,68928
2019-06-20T08:36:16.548Z,67968
2019-06-20T08:37:16.547Z,73888
2019-06-20T08:38:16.631Z,70720
2019-06-20T08:39:16.635Z,82816
2019-06-20T08:40:16.550Z,70432
2019-06-20T08:41:16.547Z,110784
2019-06-20T08:42:16.619Z,135168
2019-06-20T08:43:16.636Z,83936
2019-06-20T08:44:16.549Z,72160
2019-06-20T08:45:16.632Z,69184
2019-06-20T08:46:16.559Z,56224
2019-06-20T08:47:16.626Z,43584
2019-06-20T08:48:16.569Z,35904
2019-06-20T08:49:16.620Z,32256
2019-06-20T08:50:16.559Z,34400
2019-06-20T08:51:16.554Z,39808
2019-06-20T08:52:16.663Z,44544
2019-06-20T08:53:16.628Z,49920
2019-06-20T08:54:16.582Z,47808
2019-06-20T08:55:16.622Z,49664
2019-06-20T08:56:16.524Z,60384
2019-06-20T08:57:16.613Z,48288
2019-06-20T08:58:16.557Z,65216
2019-06-20T08:59:24.249Z,55296
2019-06-20T09:00:16.622Z,43520
2019-06-20T09:01:16.504Z,47392
2019-06-20T09:02:16.566Z,170336
2019-06-20T09:03:16.561Z,179168
2019-06-20T09:04:16.567Z,161472
2019-06-20T09:05:16.571Z,184576
2019-06-20T09:06:16.600Z,184160
2019-06-20T09:07:16.641Z,187072
2019-06-20T09:08:16.644Z,180256
2019-06-20T09:09:16.575Z,166816
2019-06-20T09:10:16.678Z,184224
2019-06-20T09:11:16.643Z,179744
2019-06-20T09:12:16.572Z,89312
2019-06-20T09:13:16.677Z,62912
2019-06-20T09:14:16.571Z,52256
2019-06-20T09:15:16.650Z,43872
2019-06-20T09:16:24.452Z,43072
2019-06-20T09:17:16.646Z,29376
2019-06-20T09:18:16.671Z,27360
2019-06-20T09:19:16.586Z,29440
2019-06-20T09:20:16.651Z,35200
2019-06-20T09:21:16.649Z,41792
2019-06-20T09:22:16.595Z,47904
2019-06-20T09:23:16.705Z,109088
2019-06-20T09:24:16.650Z,67680
2019-06-20T09:25:16.528Z,69216
2019-06-20T09:26:16.565Z,124416
2019-06-20T09:27:16.641Z,146368
2019-06-20T09:28:16.544Z,121184
2019-06-20T09:29:16.646Z,179008
2019-06-20T09:30:16.592Z,141728
2019-06-20T09:31:16.644Z,77888
2019-06-20T09:32:16.551Z,78912
2019-06-20T09:33:16.590Z,148832
2019-06-20T09:34:16.572Z,199232
2019-06-20T09:35:16.653Z,183840
2019-06-20T09:36:16.554Z,143968
2019-06-20T09:37:16.595Z,174592
2019-06-20T09:38:16.587Z,181344
2019-06-20T09:39:16.579Z,187424
2019-06-20T09:40:16.595Z,168576
2019-06-20T09:41:16.577Z,140704
2019-06-20T09:42:16.656Z,171264
2019-06-20T09:43:27.082Z,183552
2019-06-20T09:44:16.662Z,190336
2019-06-20T09:45:16.595Z,67808
2019-06-20T09:46:16.658Z,72192
2019-06-20T09:47:16.546Z,80256
2019-06-20T09:48:16.631Z,160512
2019-06-20T09:49:16.593Z,103552
2019-06-20T09:50:16.538Z,74624
2019-06-20T09:51:16.622Z,84576
2019-06-20T09:52:16.657Z,111552
2019-06-20T09:53:16.607Z,97312
2019-06-20T09:54:16.575Z,99776
2019-06-20T09:55:16.590Z,216416
2019-06-20T09:56:16.665Z,227328
2019-06-20T09:57:16.600Z,212672
2019-06-20T09:58:16.585Z,99936
2019-06-20T09:59:27.157Z,77568
2019-06-20T10:00:16.666Z,64800
2019-06-20T10:01:16.592Z,56768
2019-06-20T10:02:16.670Z,49600
2019-06-20T10:03:16.585Z,43712
2019-06-20T10:04:16.603Z,39168
2019-06-20T10:05:16.609Z,37600
2019-06-20T10:06:16.688Z,38144
2019-06-20T10:07:16.684Z,41760
2019-06-20T10:08:16.686Z,49664
2019-06-20T10:09:16.713Z,59552
2019-06-20T10:10:16.687Z,162016
2019-06-20T10:11:16.621Z,65344
2019-06-20T10:12:16.698Z,58688
2019-06-20T10:13:16.688Z,58848
2019-06-20T10:14:16.689Z,60224
2019-06-20T10:15:16.710Z,61344
2019-06-20T10:16:16.694Z,63968
2019-06-20T10:17:16.695Z,71040
2019-06-20T10:18:16.631Z,77984
2019-06-20T10:19:16.639Z,79072
2019-06-20T10:20:16.694Z,81504
2019-06-20T10:21:16.707Z,221376
2019-06-20T10:22:16.698Z,216160
2019-06-20T10:23:16.626Z,229696
2019-06-20T10:24:16.635Z,200992
2019-06-20T10:25:16.630Z,223648
2019-06-20T10:26:16.638Z,154144
2019-06-20T10:27:16.649Z,176320
2019-06-20T10:28:16.638Z,93760
2019-06-20T10:29:16.638Z,87488
2019-06-20T10:30:16.659Z,102976
2019-06-20T10:31:16.639Z,169856
2019-06-20T10:32:16.701Z,119584
2019-06-20T10:33:16.642Z,88416
2019-06-20T10:34:16.642Z,206592
2019-06-20T10:35:16.702Z,87424
2019-06-20T10:36:16.644Z,149056
2019-06-20T10:37:16.645Z,114784
2019-06-20T10:38:16.641Z,209312
2019-06-20T10:39:16.647Z,211264
2019-06-20T10:40:16.713Z,181088
2019-06-20T10:41:16.718Z,151488
2019-06-20T10:42:16.645Z,210144
2019-06-20T10:43:16.711Z,165152
2019-06-20T10:44:16.607Z,92384
2019-06-20T10:45:16.707Z,195008
2019-06-20T10:46:16.638Z,101824
2019-06-20T10:47:28.925Z,204384
2019-06-20T10:48:16.712Z,156160
2019-06-20T10:49:16.706Z,207264
2019-06-20T10:50:16.707Z,211744
2019-06-20T10:51:16.642Z,152448
2019-06-20T10:52:16.707Z,214624
2019-06-20T10:53:16.635Z,218816
2019-06-20T10:54:16.638Z,138720
2019-06-20T10:55:16.622Z,167680
2019-06-20T10:56:16.664Z,128800
2019-06-20T10:57:16.724Z,160064
2019-06-20T10:58:16.666Z,101920
2019-06-20T10:59:16.730Z,132288
2019-06-20T11:00:29.663Z,97088
2019-06-20T11:01:16.727Z,89920
2019-06-20T11:02:16.684Z,104256
2019-06-20T11:03:16.662Z,155616
2019-06-20T11:04:16.737Z,119040
2019-06-20T11:05:16.646Z,126528
2019-06-20T11:06:16.653Z,81856
2019-06-20T11:07:16.654Z,77728
2019-06-20T11:08:16.692Z,78048
2019-06-20T11:09:16.654Z,80576
2019-06-20T11:10:16.654Z,81408
2019-06-20T11:11:16.721Z,93632
2019-06-20T11:12:16.651Z,107424
2019-06-20T11:13:16.740Z,120128
2019-06-20T11:14:16.662Z,155136
2019-06-20T11:15:16.731Z,134560
2019-06-20T11:16:16.662Z,144000
2019-06-20T11:17:16.728Z,100576
2019-06-20T11:18:16.728Z,126240
2019-06-20T11:19:16.730Z,125056
2019-06-20T11:20:16.818Z,198880
2019-06-20T11:21:16.740Z,119712
2019-06-20T11:22:16.659Z,209504
2019-06-20T11:23:16.732Z,198880
2019-06-20T11:24:16.733Z,197664
2019-06-20T11:25:19.111Z,116928
2019-06-20T11:26:16.695Z,139392
2019-06-20T11:27:16.746Z,206048
2019-06-20T11:28:16.748Z,211616
2019-06-20T11:29:16.755Z,99488
2019-06-20T11:30:16.677Z,141856
2019-06-20T11:31:16.748Z,204416
2019-06-20T11:32:16.686Z,199232
2019-06-20T11:33:16.700Z,175136
2019-06-20T11:34:16.683Z,193088
2019-06-20T11:35:16.745Z,59616
2019-06-20T11:36:16.664Z,59360
2019-06-20T11:37:16.675Z,67008
2019-06-20T11:38:16.738Z,165376
2019-06-20T11:39:16.676Z,205024
2019-06-20T11:40:16.777Z,198880
2019-06-20T11:41:16.697Z,198016
2019-06-20T11:42:16.703Z,188160
2019-06-20T11:43:16.762Z,185984
2019-06-20T11:44:16.676Z,184544
2019-06-20T11:45:16.687Z,180672
2019-06-20T11:46:16.766Z,181536
2019-06-20T11:47:16.768Z,180896
2019-06-20T11:48:16.769Z,181184
2019-06-20T11:49:16.769Z,173728
2019-06-20T11:50:16.693Z,181856
2019-06-20T11:51:16.771Z,58336
2019-06-20T11:52:16.719Z,183872
2019-06-20T11:53:16.701Z,183264
2019-06-20T11:54:16.766Z,184960
2019-06-20T11:55:16.765Z,186368
2019-06-20T11:56:16.706Z,189152
2019-06-20T11:57:16.773Z,190112
2019-06-20T11:58:16.775Z,188224
2019-06-20T11:59:16.667Z,184192
2019-06-20T12:00:16.769Z,184192
2019-06-20T12:01:16.709Z,176128
2019-06-20T12:02:16.769Z,134336
2019-06-20T12:03:16.772Z,185408
2019-06-20T12:04:16.774Z,187456
2019-06-20T12:05:16.765Z,172096
2019-06-20T12:06:16.776Z,112160
2019-06-20T12:07:16.775Z,192704
2019-06-20T12:08:16.791Z,192160
2019-06-20T12:09:16.783Z,186208
2019-06-20T12:10:16.709Z,178496
2019-06-20T12:11:16.779Z,176128
2019-06-20T12:12:16.781Z,176576
2019-06-20T12:13:16.783Z,177248
2019-06-20T12:14:16.803Z,179168
2019-06-20T12:15:16.771Z,186016
2019-06-20T12:16:16.777Z,187616
2019-06-20T12:17:16.739Z,75296
2019-06-20T12:18:16.707Z,51200
2019-06-20T12:19:16.779Z,45600
2019-06-20T12:20:16.782Z,45376
2019-06-20T12:21:16.786Z,74528
2019-06-20T12:22:16.780Z,122784
2019-06-20T12:23:16.703Z,189152
2019-06-20T12:24:16.754Z,72800
2019-06-20T12:25:16.836Z,83136
2019-06-20T12:26:16.712Z,74624
2019-06-20T12:27:16.709Z,191872
2019-06-20T12:28:16.715Z,190336
2019-06-20T12:29:16.695Z,190208
2019-06-20T12:30:16.799Z,187264
2019-06-20T12:31:19.764Z,172736
2019-06-20T12:32:16.716Z,42368
2019-06-20T12:33:16.718Z,42208
2019-06-20T12:34:16.724Z,53120
2019-06-20T12:35:16.788Z,67744
2019-06-20T12:36:16.788Z,173056
2019-06-20T12:37:16.717Z,169600
2019-06-20T12:38:16.714Z,172032
2019-06-20T12:39:16.910Z,82752
2019-06-20T12:40:16.721Z,173952
2019-06-20T12:41:16.788Z,167136
2019-06-20T12:42:16.790Z,156352
2019-06-20T12:43:16.728Z,153056
2019-06-20T12:44:16.691Z,153952
2019-06-20T12:45:16.739Z,153440
2019-06-20T12:46:16.812Z,142624
2019-06-20T12:47:16.804Z,164384
2019-06-20T12:48:16.809Z,158688
2019-06-20T12:49:16.743Z,119808
2019-06-20T12:50:16.816Z,139968
2019-06-20T12:51:16.810Z,145632
2019-06-20T12:52:16.753Z,160032
2019-06-20T12:53:16.770Z,64704
2019-06-20T12:54:16.817Z,46976
2019-06-20T12:55:16.711Z,50432
2019-06-20T12:56:16.762Z,50144
2019-06-20T12:57:16.757Z,42304
2019-06-20T12:58:16.830Z,40672
2019-06-20T12:59:16.745Z,43040
2019-06-20T13:00:16.814Z,54688
2019-06-20T13:01:16.787Z,123520
2019-06-20T13:02:16.747Z,58272
2019-06-20T13:03:16.826Z,47168
2019-06-20T13:04:16.754Z,46528
2019-06-20T13:05:16.789Z,145760
2019-06-20T13:06:16.722Z,176000
2019-06-20T13:07:16.786Z,175072
2019-06-20T13:08:16.813Z,170656
2019-06-20T13:09:16.813Z,169632
2019-06-20T13:10:16.791Z,169248
2019-06-20T13:11:16.770Z,170720